Saint Rose, Illinois
Current Conditions -  °F | °C
As of 9:58 PM on Sunday 19 Oct 2014 (Local Time) from KBLV Reporting Station
Overcast Overcast  
Wind Chill: 51°   Ceiling: 13000
Heat Index: 51°   Visibility: 10mi
Dew Point: 47°   Wind: 5mph
Humidity: 87%   Direction: 160°SSE
Pressure: 30.04"   Gusts: NA
Location:  38.6297°N, 89.5228°W
Report Text: KBLV 200258Z AUTO 16004KT 10SM BKN130 OVC180 11/09 A3004 RMK AO2 SLP176 T01070086 57007
Loading
Personal Weather Stations






























Interactive Weather Map
Tropical Storm Tracking
New forecast layout! Learn more

10-Day Weather Forecast

Advertisements
Track Severe Weather on mobile